sensor_id;sensor_type;location;lat;lon;timestamp;temperature;humidity
2300;DHT22;1158;48.750;9.078;2023-03-04T00:02:16;-2.80;99.90
2300;DHT22;1158;48.750;9.078;2023-03-04T00:04:43;-2.80;99.90
2300;DHT22;1158;48.750;9.078;2023-03-04T00:07:10;-2.80;99.90
2300;DHT22;1158;48.750;9.078;2023-03-04T00:09:42;-2.90;99.90
2300;DHT22;1158;48.750;9.078;2023-03-04T00:12:09;-2.90;99.90
2300;DHT22;1158;48.750;9.078;2023-03-04T00:14:36;-3.00;99.90
2300;DHT22;1158;48.750;9.078;2023-03-04T00:17:03;-2.90;99.90
2300;DHT22;1158;48.750;9.078;2023-03-04T00:19:29;-2.90;99.90
2300;DHT22;1158;48.750;9.078;2023-03-04T00:21:56;-3.00;99.90
2300;DHT22;1158;48.750;9.078;2023-03-04T00:24:23;-3.00;99.90
2300;DHT22;1158;48.750;9.078;2023-03-04T00:26:51;-3.00;99.90
2300;DHT22;1158;48.750;9.078;2023-03-04T00:29:18;-3.00;99.90
2300;DHT22;1158;48.750;9.078;2023-03-04T00:31:46;-3.00;99.90
2300;DHT22;1158;48.750;9.078;2023-03-04T00:34:13;-3.10;99.90
2300;DHT22;1158;48.750;9.078;2023-03-04T00:36:39;-3.00;99.90
2300;DHT22;1158;48.750;9.078;2023-03-04T00:39:09;-3.10;99.90
2300;DHT22;1158;48.750;9.078;2023-03-04T00:41:35;-3.20;99.90
2300;DHT22;1158;48.750;9.078;2023-03-04T00:44:04;-3.20;99.90
2300;DHT22;1158;48.750;9.078;2023-03-04T00:46:30;-3.10;99.90
2300;DHT22;1158;48.750;9.078;2023-03-04T00:48:57;-3.10;99.90
2300;DHT22;1158;48.750;9.078;2023-03-04T00:51:24;-3.20;99.90
2300;DHT22;1158;48.750;9.078;2023-03-04T00:53:50;-3.20;99.90
2300;DHT22;1158;48.750;9.078;2023-03-04T00:56:17;-3.20;99.90
2300;DHT22;1158;48.750;9.078;2023-03-04T00:58:44;-3.20;99.90
2300;DHT22;1158;48.750;9.078;2023-03-04T01:01:12;-3.20;99.90
2300;DHT22;1158;48.750;9.078;2023-03-04T01:03:38;-3.20;99.90
2300;DHT22;1158;48.750;9.078;2023-03-04T01:06:06;-3.30;99.90
2300;DHT22;1158;48.750;9.078;2023-03-04T01:08:33;-3.30;99.90
2300;DHT22;1158;48.750;9.078;2023-03-04T01:10:59;-3.30;99.90
2300;DHT22;1158;48.750;9.078;2023-03-04T01:13:26;-3.40;99.90
2300;DHT22;1158;48.750;9.078;2023-03-04T01:15:53;-3.40;99.90
2300;DHT22;1158;48.750;9.078;2023-03-04T01:18:21;-3.40;99.90
2300;DHT22;1158;48.750;9.078;2023-03-04T01:20:48;-3.40;99.90
2300;DHT22;1158;48.750;9.078;2023-03-04T01:23:15;-3.40;99.90
2300;DHT22;1158;48.750;9.078;2023-03-04T01:25:42;-3.40;99.90
2300;DHT22;1158;48.750;9.078;2023-03-04T01:28:08;-3.30;99.90
2300;DHT22;1158;48.750;9.078;2023-03-04T01:30:36;-3.40;99.90
2300;DHT22;1158;48.750;9.078;2023-03-04T01:33:02;-3.40;99.90
2300;DHT22;1158;48.750;9.078;2023-03-04T01:35:30;-3.50;99.90
2300;DHT22;1158;48.750;9.078;2023-03-04T01:37:57;-3.50;99.90
2300;DHT22;1158;48.750;9.078;2023-03-04T01:40:24;-3.50;99.90
2300;DHT22;1158;48.750;9.078;2023-03-04T01:42:50;-3.50;99.90
2300;DHT22;1158;48.750;9.078;2023-03-04T01:45:18;-3.50;99.90
2300;DHT22;1158;48.750;9.078;2023-03-04T01:47:46;-3.50;99.90
2300;DHT22;1158;48.750;9.078;2023-03-04T01:50:18;-3.50;99.90
2300;DHT22;1158;48.750;9.078;2023-03-04T01:52:47;-3.50;99.90
2300;DHT22;1158;48.750;9.078;2023-03-04T01:55:16;-3.50;99.90
2300;DHT22;1158;48.750;9.078;2023-03-04T01:57:44;-3.50;99.90
2300;DHT22;1158;48.750;9.078;2023-03-04T02:00:20;-3.50;99.90
2300;DHT22;1158;48.750;9.078;2023-03-04T02:02:47;-3.60;99.90
2300;DHT22;1158;48.750;9.078;2023-03-04T02:05:15;-3.60;99.90
2300;DHT22;1158;48.750;9.078;2023-03-04T02:07:43;-3.60;99.90
2300;DHT22;1158;48.750;9.078;2023-03-04T02:10:11;-3.70;99.90
2300;DHT22;1158;48.750;9.078;2023-03-04T02:12:38;-3.60;99.90
2300;DHT22;1158;48.750;9.078;2023-03-04T02:15:07;-3.60;99.90
2300;DHT22;1158;48.750;9.078;2023-03-04T02:17:35;-3.60;99.90
2300;DHT22;1158;48.750;9.078;2023-03-04T02:20:10;-3.60;99.90
2300;DHT22;1158;48.750;9.078;2023-03-04T02:22:45;-3.60;99.90
2300;DHT22;1158;48.750;9.078;2023-03-04T02:25:18;-3.60;99.90
2300;DHT22;1158;48.750;9.078;2023-03-04T02:27:47;-3.60;99.90
2300;DHT22;1158;48.750;9.078;2023-03-04T02:30:15;-3.60;99.90
2300;DHT22;1158;48.750;9.078;2023-03-04T02:32:43;-3.60;99.90
2300;DHT22;1158;48.750;9.078;2023-03-04T02:35:13;-3.50;99.90
2300;DHT22;1158;48.750;9.078;2023-03-04T02:37:41;-3.50;99.90
2300;DHT22;1158;48.750;9.078;2023-03-04T02:40:13;-3.50;99.90
2300;DHT22;1158;48.750;9.078;2023-03-04T02:42:43;-3.40;99.90
2300;DHT22;1158;48.750;9.078;2023-03-04T02:45:34;-3.50;99.90
2300;DHT22;1158;48.750;9.078;2023-03-04T02:48:02;-3.50;99.90
2300;DHT22;1158;48.750;9.078;2023-03-04T02:50:34;-3.60;99.90
2300;DHT22;1158;48.750;9.078;2023-03-04T02:53:01;-3.70;99.90
2300;DHT22;1158;48.750;9.078;2023-03-04T02:55:27;-3.70;99.90
2300;DHT22;1158;48.750;9.078;2023-03-04T02:57:54;-3.80;99.90
2300;DHT22;1158;48.750;9.078;2023-03-04T03:00:21;-3.80;99.90
2300;DHT22;1158;48.750;9.078;2023-03-04T03:02:49;-3.80;99.90
2300;DHT22;1158;48.750;9.078;2023-03-04T03:05:16;-3.90;99.90
2300;DHT22;1158;48.750;9.078;2023-03-04T03:07:43;-3.90;99.90
2300;DHT22;1158;48.750;9.078;2023-03-04T03:10:10;-3.90;99.90
2300;DHT22;1158;48.750;9.078;2023-03-04T03:12:37;-3.80;99.90
2300;DHT22;1158;48.750;9.078;2023-03-04T03:15:05;-3.80;99.90
2300;DHT22;1158;48.750;9.078;2023-03-04T03:17:32;-3.80;99.90
2300;DHT22;1158;48.750;9.078;2023-03-04T03:20:00;-3.80;99.90
2300;DHT22;1158;48.750;9.078;2023-03-04T03:22:26;-3.90;99.90
2300;DHT22;1158;48.750;9.078;2023-03-04T03:24:53;-3.90;99.90
2300;DHT22;1158;48.750;9.078;2023-03-04T03:27:20;-3.90;99.90
2300;DHT22;1158;48.750;9.078;2023-03-04T03:29:46;-4.00;99.90
2300;DHT22;1158;48.750;9.078;2023-03-04T03:32:13;-4.00;99.90
2300;DHT22;1158;48.750;9.078;2023-03-04T03:34:40;-4.10;99.90
2300;DHT22;1158;48.750;9.078;2023-03-04T03:37:08;-4.10;99.90
2300;DHT22;1158;48.750;9.078;2023-03-04T03:39:35;-4.10;99.90
2300;DHT22;1158;48.750;9.078;2023-03-04T03:42:01;-4.10;99.90
2300;DHT22;1158;48.750;9.078;2023-03-04T03:44:28;-4.20;99.90
2300;DHT22;1158;48.750;9.078;2023-03-04T03:46:55;-4.20;99.90
2300;DHT22;1158;48.750;9.078;2023-03-04T03:49:21;-4.20;99.90
2300;DHT22;1158;48.750;9.078;2023-03-04T03:51:48;-4.20;99.90
2300;DHT22;1158;48.750;9.078;2023-03-04T03:54:16;-4.30;99.90
2300;DHT22;1158;48.750;9.078;2023-03-04T03:56:43;-4.30;99.90
2300;DHT22;1158;48.750;9.078;2023-03-04T03:59:09;-4.30;99.90
2300;DHT22;1158;48.750;9.078;2023-03-04T04:01:36;-4.30;99.90
2300;DHT22;1158;48.750;9.078;2023-03-04T04:04:03;-4.30;99.90
2300;DHT22;1158;48.750;9.078;2023-03-04T04:06:30;-4.30;99.90
2300;DHT22;1158;48.750;9.078;2023-03-04T04:08:56;-4.40;99.90
2300;DHT22;1158;48.750;9.078;2023-03-04T04:11:24;-4.40;99.90
2300;DHT22;1158;48.750;9.078;2023-03-04T04:13:52;-4.40;99.90
2300;DHT22;1158;48.750;9.078;2023-03-04T04:16:26;-4.50;99.90
2300;DHT22;1158;48.750;9.078;2023-03-04T04:18:53;-4.50;99.90
2300;DHT22;1158;48.750;9.078;2023-03-04T04:21:20;-4.50;99.90
2300;DHT22;1158;48.750;9.078;2023-03-04T04:23:47;-4.50;99.90
2300;DHT22;1158;48.750;9.078;2023-03-04T04:26:13;-4.60;99.90
2300;DHT22;1158;48.750;9.078;2023-03-04T04:28:41;-4.50;99.90
2300;DHT22;1158;48.750;9.078;2023-03-04T04:31:08;-4.60;99.90
2300;DHT22;1158;48.750;9.078;2023-03-04T04:33:35;-4.70;99.90
2300;DHT22;1158;48.750;9.078;2023-03-04T04:36:03;-4.70;99.90
2300;DHT22;1158;48.750;9.078;2023-03-04T04:38:30;-4.80;99.90
2300;DHT22;1158;48.750;9.078;2023-03-04T04:40:57;-4.80;99.90
2300;DHT22;1158;48.750;9.078;2023-03-04T04:43:24;-4.80;99.90
2300;DHT22;1158;48.750;9.078;2023-03-04T04:45:53;-4.80;99.90
2300;DHT22;1158;48.750;9.078;2023-03-04T04:48:19;-4.80;99.90
2300;DHT22;1158;48.750;9.078;2023-03-04T04:50:46;-4.80;99.90
2300;DHT22;1158;48.750;9.078;2023-03-04T04:53:13;-4.90;99.90
2300;DHT22;1158;48.750;9.078;2023-03-04T04:55:39;-4.90;99.90
2300;DHT22;1158;48.750;9.078;2023-03-04T04:58:06;-4.80;99.90
2300;DHT22;1158;48.750;9.078;2023-03-04T05:00:33;-4.70;99.90
2300;DHT22;1158;48.750;9.078;2023-03-04T05:03:01;-4.70;99.90
2300;DHT22;1158;48.750;9.078;2023-03-04T05:05:28;-4.70;99.90
2300;DHT22;1158;48.750;9.078;2023-03-04T05:07:55;-4.70;99.90
2300;DHT22;1158;48.750;9.078;2023-03-04T05:10:21;-4.70;99.90
2300;DHT22;1158;48.750;9.078;2023-03-04T05:12:48;-4.80;99.90
2300;DHT22;1158;48.750;9.078;2023-03-04T05:15:15;-4.80;99.90
2300;DHT22;1158;48.750;9.078;2023-03-04T05:17:42;-4.80;99.90
2300;DHT22;1158;48.750;9.078;2023-03-04T05:20:10;-4.80;99.90
2300;DHT22;1158;48.750;9.078;2023-03-04T05:22:37;-4.90;99.90
2300;DHT22;1158;48.750;9.078;2023-03-04T05:25:04;-5.00;99.90
2300;DHT22;1158;48.750;9.078;2023-03-04T05:27:31;-5.10;99.90
2300;DHT22;1158;48.750;9.078;2023-03-04T05:29:58;-5.10;99.90
2300;DHT22;1158;48.750;9.078;2023-03-04T05:32:25;-5.10;99.90
2300;DHT22;1158;48.750;9.078;2023-03-04T05:34:52;-5.00;99.90
2300;DHT22;1158;48.750;9.078;2023-03-04T05:37:20;-5.10;99.90
2300;DHT22;1158;48.750;9.078;2023-03-04T05:39:46;-5.00;99.90
2300;DHT22;1158;48.750;9.078;2023-03-04T05:42:13;-5.10;99.90
2300;DHT22;1158;48.750;9.078;2023-03-04T05:44:40;-5.10;99.90
2300;DHT22;1158;48.750;9.078;2023-03-04T05:47:06;-5.00;99.90
2300;DHT22;1158;48.750;9.078;2023-03-04T05:49:33;-5.00;99.90
2300;DHT22;1158;48.750;9.078;2023-03-04T05:52:00;-5.00;99.90
2300;DHT22;1158;48.750;9.078;2023-03-04T05:54:28;-4.90;99.90
2300;DHT22;1158;48.750;9.078;2023-03-04T05:56:54;-5.00;99.90
2300;DHT22;1158;48.750;9.078;2023-03-04T05:59:21;-4.90;99.90
2300;DHT22;1158;48.750;9.078;2023-03-04T06:01:48;-4.90;99.90
2300;DHT22;1158;48.750;9.078;2023-03-04T06:04:16;-5.00;99.90
2300;DHT22;1158;48.750;9.078;2023-03-04T06:06:42;-5.00;99.90
2300;DHT22;1158;48.750;9.078;2023-03-04T06:09:11;-5.00;99.90
2300;DHT22;1158;48.750;9.078;2023-03-04T06:11:39;-5.00;99.90
2300;DHT22;1158;48.750;9.078;2023-03-04T06:14:08;-5.00;99.90
2300;DHT22;1158;48.750;9.078;2023-03-04T06:16:34;-4.90;99.90
2300;DHT22;1158;48.750;9.078;2023-03-04T06:19:01;-4.90;99.90
2300;DHT22;1158;48.750;9.078;2023-03-04T06:21:28;-4.80;99.90
2300;DHT22;1158;48.750;9.078;2023-03-04T06:23:54;-4.80;99.90
2300;DHT22;1158;48.750;9.078;2023-03-04T06:26:21;-4.80;99.90
2300;DHT22;1158;48.750;9.078;2023-03-04T06:28:49;-4.60;99.90
2300;DHT22;1158;48.750;9.078;2023-03-04T06:31:16;-4.40;99.90
2300;DHT22;1158;48.750;9.078;2023-03-04T06:33:43;-4.20;99.90
2300;DHT22;1158;48.750;9.078;2023-03-04T06:36:10;-4.10;99.90
2300;DHT22;1158;48.750;9.078;2023-03-04T06:38:37;-3.90;99.90
2300;DHT22;1158;48.750;9.078;2023-03-04T06:41:08;-3.70;99.90
2300;DHT22;1158;48.750;9.078;2023-03-04T06:43:35;-3.70;99.90
2300;DHT22;1158;48.750;9.078;2023-03-04T06:46:03;-3.60;99.90
2300;DHT22;1158;48.750;9.078;2023-03-04T06:48:30;-3.50;99.90
2300;DHT22;1158;48.750;9.078;2023-03-04T06:50:57;-3.30;99.90
2300;DHT22;1158;48.750;9.078;2023-03-04T06:53:24;-3.10;99.90
2300;DHT22;1158;48.750;9.078;2023-03-04T06:55:50;-2.90;99.90
2300;DHT22;1158;48.750;9.078;2023-03-04T06:58:17;-2.70;99.90
2300;DHT22;1158;48.750;9.078;2023-03-04T07:00:44;-2.60;99.90
2300;DHT22;1158;48.750;9.078;2023-03-04T07:03:12;-2.40;99.90
2300;DHT22;1158;48.750;9.078;2023-03-04T07:05:39;-2.30;99.90
2300;DHT22;1158;48.750;9.078;2023-03-04T07:08:05;-2.10;99.90
2300;DHT22;1158;48.750;9.078;2023-03-04T07:10:32;-2.10;99.90
2300;DHT22;1158;48.750;9.078;2023-03-04T07:12:59;-1.90;99.90
2300;DHT22;1158;48.750;9.078;2023-03-04T07:15:26;-1.80;99.90
2300;DHT22;1158;48.750;9.078;2023-03-04T07:17:53;-1.80;99.90
2300;DHT22;1158;48.750;9.078;2023-03-04T07:20:21;-1.70;99.90
2300;DHT22;1158;48.750;9.078;2023-03-04T07:22:48;-1.70;99.90
2300;DHT22;1158;48.750;9.078;2023-03-04T07:25:14;-1.60;99.90
2300;DHT22;1158;48.750;9.078;2023-03-04T07:27:42;-1.60;99.90
2300;DHT22;1158;48.750;9.078;2023-03-04T07:30:10;-1.60;99.90
2300;DHT22;1158;48.750;9.078;2023-03-04T07:32:37;-1.40;99.90
2300;DHT22;1158;48.750;9.078;2023-03-04T07:35:04;-1.40;99.90
2300;DHT22;1158;48.750;9.078;2023-03-04T07:37:32;-1.40;99.90
2300;DHT22;1158;48.750;9.078;2023-03-04T07:39:59;-1.20;99.90
2300;DHT22;1158;48.750;9.078;2023-03-04T07:42:26;-1.20;99.90
2300;DHT22;1158;48.750;9.078;2023-03-04T07:44:52;-1.30;99.90
2300;DHT22;1158;48.750;9.078;2023-03-04T07:47:20;-1.20;99.90
2300;DHT22;1158;48.750;9.078;2023-03-04T07:49:47;-1.10;99.90
2300;DHT22;1158;48.750;9.078;2023-03-04T07:52:13;-1.20;99.90
2300;DHT22;1158;48.750;9.078;2023-03-04T07:54:41;-1.10;99.90
2300;DHT22;1158;48.750;9.078;2023-03-04T07:57:08;-1.00;99.90
2300;DHT22;1158;48.750;9.078;2023-03-04T07:59:35;-1.00;99.90
2300;DHT22;1158;48.750;9.078;2023-03-04T08:02:02;-1.00;99.90
2300;DHT22;1158;48.750;9.078;2023-03-04T08:04:28;-0.90;99.90
2300;DHT22;1158;48.750;9.078;2023-03-04T08:06:55;-0.80;99.90
2300;DHT22;1158;48.750;9.078;2023-03-04T08:09:22;-0.70;99.90
2300;DHT22;1158;48.750;9.078;2023-03-04T08:11:50;-0.70;99.90
2300;DHT22;1158;48.750;9.078;2023-03-04T08:14:17;-0.90;99.90
2300;DHT22;1158;48.750;9.078;2023-03-04T08:16:44;-0.90;99.90
2300;DHT22;1158;48.750;9.078;2023-03-04T08:19:11;-0.80;99.90
2300;DHT22;1158;48.750;9.078;2023-03-04T08:21:38;-0.80;99.90
2300;DHT22;1158;48.750;9.078;2023-03-04T08:24:05;-0.70;99.90
2300;DHT22;1158;48.750;9.078;2023-03-04T08:26:34;-0.60;99.90
2300;DHT22;1158;48.750;9.078;2023-03-04T08:29:04;-0.40;99.90
2300;DHT22;1158;48.750;9.078;2023-03-04T08:31:32;-0.40;99.90
2300;DHT22;1158;48.750;9.078;2023-03-04T08:33:58;-0.30;99.90
2300;DHT22;1158;48.750;9.078;2023-03-04T08:36:25;-0.20;99.90
2300;DHT22;1158;48.750;9.078;2023-03-04T08:38:52;-0.20;99.90
2300;DHT22;1158;48.750;9.078;2023-03-04T08:41:18;-0.50;99.90
2300;DHT22;1158;48.750;9.078;2023-03-04T08:43:45;-0.50;99.90
2300;DHT22;1158;48.750;9.078;2023-03-04T08:46:13;-0.30;99.90
2300;DHT22;1158;48.750;9.078;2023-03-04T08:48:40;-0.30;99.90
2300;DHT22;1158;48.750;9.078;2023-03-04T08:51:08;-0.40;99.90
2300;DHT22;1158;48.750;9.078;2023-03-04T08:53:35;-0.30;99.90
2300;DHT22;1158;48.750;9.078;2023-03-04T08:56:02;1.50;99.90
2300;DHT22;1158;48.750;9.078;2023-03-04T08:58:29;0.80;99.90
2300;DHT22;1158;48.750;9.078;2023-03-04T09:00:59;0.40;99.90
2300;DHT22;1158;48.750;9.078;2023-03-04T09:03:27;-0.10;99.90
2300;DHT22;1158;48.750;9.078;2023-03-04T09:05:54;-0.10;99.90
2300;DHT22;1158;48.750;9.078;2023-03-04T09:08:21;-0.10;99.90
2300;DHT22;1158;48.750;9.078;2023-03-04T09:10:51;-0.20;99.90
2300;DHT22;1158;48.750;9.078;2023-03-04T09:13:18;-0.10;99.90
2300;DHT22;1158;48.750;9.078;2023-03-04T09:15:47;-0.10;99.90
2300;DHT22;1158;48.750;9.078;2023-03-04T09:18:14;0.10;99.90
2300;DHT22;1158;48.750;9.078;2023-03-04T09:20:43;0.10;99.90
2300;DHT22;1158;48.750;9.078;2023-03-04T09:23:11;0.10;99.90
2300;DHT22;1158;48.750;9.078;2023-03-04T09:25:39;0.10;99.90
2300;DHT22;1158;48.750;9.078;2023-03-04T09:28:06;0.10;99.90
2300;DHT22;1158;48.750;9.078;2023-03-04T09:30:33;0.10;99.90
2300;DHT22;1158;48.750;9.078;2023-03-04T09:33:00;0.10;99.90
2300;DHT22;1158;48.750;9.078;2023-03-04T09:35:27;0.20;99.90
2300;DHT22;1158;48.750;9.078;2023-03-04T09:37:57;0.30;99.90
2300;DHT22;1158;48.750;9.078;2023-03-04T09:40:26;0.30;99.90
2300;DHT22;1158;48.750;9.078;2023-03-04T09:42:58;0.50;99.90
2300;DHT22;1158;48.750;9.078;2023-03-04T09:45:33;0.50;99.90
2300;DHT22;1158;48.750;9.078;2023-03-04T09:48:00;0.60;99.90
2300;DHT22;1158;48.750;9.078;2023-03-04T09:50:28;0.80;99.90
2300;DHT22;1158;48.750;9.078;2023-03-04T09:53:06;0.80;99.90
2300;DHT22;1158;48.750;9.078;2023-03-04T09:55:41;1.00;99.90
2300;DHT22;1158;48.750;9.078;2023-03-04T09:58:25;1.40;99.90
2300;DHT22;1158;48.750;9.078;2023-03-04T10:00:55;1.40;99.90
2300;DHT22;1158;48.750;9.078;2023-03-04T10:03:26;1.50;99.90
2300;DHT22;1158;48.750;9.078;2023-03-04T10:06:00;1.40;99.90
2300;DHT22;1158;48.750;9.078;2023-03-04T10:08:50;1.50;99.90
2300;DHT22;1158;48.750;9.078;2023-03-04T10:11:22;1.70;99.90
2300;DHT22;1158;48.750;9.078;2023-03-04T10:13:55;2.00;99.90
2300;DHT22;1158;48.750;9.078;2023-03-04T10:16:26;2.20;99.90
2300;DHT22;1158;48.750;9.078;2023-03-04T10:19:00;2.10;99.90
2300;DHT22;1158;48.750;9.078;2023-03-04T10:21:31;2.40;99.90
2300;DHT22;1158;48.750;9.078;2023-03-04T10:24:06;2.70;99.90
2300;DHT22;1158;48.750;9.078;2023-03-04T10:26:37;3.00;99.90
2300;DHT22;1158;48.750;9.078;2023-03-04T10:29:03;2.90;99.90
2300;DHT22;1158;48.750;9.078;2023-03-04T10:31:33;2.90;99.90
2300;DHT22;1158;48.750;9.078;2023-03-04T10:34:01;2.80;99.90
2300;DHT22;1158;48.750;9.078;2023-03-04T10:36:42;2.90;99.90
2300;DHT22;1158;48.750;9.078;2023-03-04T10:39:17;3.00;99.90
2300;DHT22;1158;48.750;9.078;2023-03-04T10:41:53;2.80;99.90
2300;DHT22;1158;48.750;9.078;2023-03-04T10:44:22;2.70;99.90
2300;DHT22;1158;48.750;9.078;2023-03-04T10:46:49;2.40;99.90
2300;DHT22;1158;48.750;9.078;2023-03-04T10:49:19;2.40;99.90
2300;DHT22;1158;48.750;9.078;2023-03-04T10:51:47;2.50;99.90
2300;DHT22;1158;48.750;9.078;2023-03-04T10:54:23;2.40;99.90
2300;DHT22;1158;48.750;9.078;2023-03-04T10:56:59;2.30;99.90
2300;DHT22;1158;48.750;9.078;2023-03-04T10:59:38;2.40;99.90
2300;DHT22;1158;48.750;9.078;2023-03-04T11:02:19;2.20;99.90
2300;DHT22;1158;48.750;9.078;2023-03-04T11:04:52;2.40;99.90
2300;DHT22;1158;48.750;9.078;2023-03-04T11:07:20;2.60;99.90
2300;DHT22;1158;48.750;9.078;2023-03-04T11:09:48;2.80;99.90
2300;DHT22;1158;48.750;9.078;2023-03-04T11:12:19;2.70;99.90
2300;DHT22;1158;48.750;9.078;2023-03-04T11:14:52;3.10;99.90
2300;DHT22;1158;48.750;9.078;2023-03-04T11:17:22;2.90;99.90
2300;DHT22;1158;48.750;9.078;2023-03-04T11:19:53;2.70;99.90
2300;DHT22;1158;48.750;9.078;2023-03-04T11:22:22;2.70;99.90
2300;DHT22;1158;48.750;9.078;2023-03-04T11:24:55;2.70;99.90
2300;DHT22;1158;48.750;9.078;2023-03-04T11:27:29;2.50;99.90
2300;DHT22;1158;48.750;9.078;2023-03-04T11:30:08;2.40;99.90
2300;DHT22;1158;48.750;9.078;2023-03-04T11:32:42;2.50;99.90
2300;DHT22;1158;48.750;9.078;2023-03-04T11:35:17;2.80;99.90
2300;DHT22;1158;48.750;9.078;2023-03-04T11:37:52;2.90;99.90
2300;DHT22;1158;48.750;9.078;2023-03-04T11:40:27;2.60;99.90
2300;DHT22;1158;48.750;9.078;2023-03-04T11:42:57;2.40;99.90
2300;DHT22;1158;48.750;9.078;2023-03-04T11:45:34;2.70;99.90
2300;DHT22;1158;48.750;9.078;2023-03-04T11:48:08;2.80;99.90
2300;DHT22;1158;48.750;9.078;2023-03-04T11:50:44;3.00;99.90
2300;DHT22;1158;48.750;9.078;2023-03-04T11:53:25;3.00;99.90
2300;DHT22;1158;48.750;9.078;2023-03-04T11:56:03;3.20;99.90
2300;DHT22;1158;48.750;9.078;2023-03-04T12:01:48;4.70;99.90
2300;DHT22;1158;48.750;9.078;2023-03-04T12:04:42;5.10;99.90
2300;DHT22;1158;48.750;9.078;2023-03-04T12:07:23;4.80;99.90
2300;DHT22;1158;48.750;9.078;2023-03-04T12:10:03;4.40;99.90
2300;DHT22;1158;48.750;9.078;2023-03-04T12:12:51;4.00;99.90
2300;DHT22;1158;48.750;9.078;2023-03-04T12:15:25;3.60;99.90
2300;DHT22;1158;48.750;9.078;2023-03-04T12:18:12;3.50;99.90
2300;DHT22;1158;48.750;9.078;2023-03-04T12:20:56;3.60;99.90
2300;DHT22;1158;48.750;9.078;2023-03-04T12:23:54;3.10;99.90
2300;DHT22;1158;48.750;9.078;2023-03-04T12:26:35;3.50;99.90
2300;DHT22;1158;48.750;9.078;2023-03-04T12:29:10;3.20;99.90
2300;DHT22;1158;48.750;9.078;2023-03-04T12:31:40;3.00;99.90
2300;DHT22;1158;48.750;9.078;2023-03-04T12:37:22;3.20;99.90
2300;DHT22;1158;48.750;9.078;2023-03-04T12:40:10;3.20;99.90
2300;DHT22;1158;48.750;9.078;2023-03-04T12:42:45;3.00;99.90
2300;DHT22;1158;48.750;9.078;2023-03-04T12:45:20;2.90;99.90
2300;DHT22;1158;48.750;9.078;2023-03-04T12:47:57;2.80;99.90
2300;DHT22;1158;48.750;9.078;2023-03-04T12:50:31;2.90;99.90
2300;DHT22;1158;48.750;9.078;2023-03-04T12:53:09;2.90;99.90
2300;DHT22;1158;48.750;9.078;2023-03-04T12:55:41;2.90;99.90
2300;DHT22;1158;48.750;9.078;2023-03-04T12:58:14;2.90;99.90
2300;DHT22;1158;48.750;9.078;2023-03-04T13:00:51;3.00;99.90
2300;DHT22;1158;48.750;9.078;2023-03-04T13:03:24;3.20;99.90
2300;DHT22;1158;48.750;9.078;2023-03-04T13:06:07;3.20;99.90
2300;DHT22;1158;48.750;9.078;2023-03-04T13:08:45;5.00;99.90
2300;DHT22;1158;48.750;9.078;2023-03-04T13:11:39;6.20;99.90
2300;DHT22;1158;48.750;9.078;2023-03-04T13:14:27;5.30;99.90
2300;DHT22;1158;48.750;9.078;2023-03-04T13:16:57;4.60;99.90
2300;DHT22;1158;48.750;9.078;2023-03-04T13:19:43;4.30;99.90
2300;DHT22;1158;48.750;9.078;2023-03-04T13:22:31;3.90;99.90
2300;DHT22;1158;48.750;9.078;2023-03-04T13:25:02;3.30;99.90
2300;DHT22;1158;48.750;9.078;2023-03-04T13:27:49;3.10;99.90
2300;DHT22;1158;48.750;9.078;2023-03-04T13:30:40;3.10;99.90
2300;DHT22;1158;48.750;9.078;2023-03-04T13:33:43;2.80;99.90
2300;DHT22;1158;48.750;9.078;2023-03-04T13:39:23;2.60;99.90
2300;DHT22;1158;48.750;9.078;2023-03-04T13:41:51;2.60;99.90
2300;DHT22;1158;48.750;9.078;2023-03-04T13:44:33;2.50;99.90
2300;DHT22;1158;48.750;9.078;2023-03-04T13:47:08;2.60;99.90
2300;DHT22;1158;48.750;9.078;2023-03-04T13:49:36;2.40;99.90
2300;DHT22;1158;48.750;9.078;2023-03-04T13:52:36;2.50;99.90
2300;DHT22;1158;48.750;9.078;2023-03-04T13:55:35;2.50;99.90
2300;DHT22;1158;48.750;9.078;2023-03-04T13:58:15;2.90;99.90
2300;DHT22;1158;48.750;9.078;2023-03-04T14:00:47;2.90;99.90
2300;DHT22;1158;48.750;9.078;2023-03-04T14:03:20;2.80;99.90
2300;DHT22;1158;48.750;9.078;2023-03-04T14:06:08;2.50;99.90
2300;DHT22;1158;48.750;9.078;2023-03-04T14:08:35;2.40;99.90
2300;DHT22;1158;48.750;9.078;2023-03-04T14:11:02;2.40;99.90
2300;DHT22;1158;48.750;9.078;2023-03-04T14:13:29;2.30;99.90
2300;DHT22;1158;48.750;9.078;2023-03-04T14:15:56;2.20;99.90
2300;DHT22;1158;48.750;9.078;2023-03-04T14:18:23;2.20;99.90
2300;DHT22;1158;48.750;9.078;2023-03-04T14:20:51;2.20;99.90
2300;DHT22;1158;48.750;9.078;2023-03-04T14:23:25;2.30;99.90
2300;DHT22;1158;48.750;9.078;2023-03-04T14:26:03;2.30;99.90
2300;DHT22;1158;48.750;9.078;2023-03-04T14:28:30;2.30;99.90
2300;DHT22;1158;48.750;9.078;2023-03-04T14:30:57;2.20;99.90
2300;DHT22;1158;48.750;9.078;2023-03-04T14:33:26;2.10;99.90
2300;DHT22;1158;48.750;9.078;2023-03-04T14:35:56;2.10;99.90
2300;DHT22;1158;48.750;9.078;2023-03-04T14:38:24;2.10;99.90
2300;DHT22;1158;48.750;9.078;2023-03-04T14:40:55;2.10;99.90
2300;DHT22;1158;48.750;9.078;2023-03-04T14:43:26;2.00;99.90
2300;DHT22;1158;48.750;9.078;2023-03-04T14:45:57;1.90;99.90
2300;DHT22;1158;48.750;9.078;2023-03-04T14:48:28;1.90;99.90
2300;DHT22;1158;48.750;9.078;2023-03-04T14:50:58;2.00;99.90
2300;DHT22;1158;48.750;9.078;2023-03-04T14:53:30;2.00;99.90
2300;DHT22;1158;48.750;9.078;2023-03-04T14:55:58;1.90;99.90
2300;DHT22;1158;48.750;9.078;2023-03-04T14:58:27;1.90;99.90
2300;DHT22;1158;48.750;9.078;2023-03-04T15:01:13;2.00;99.90
2300;DHT22;1158;48.750;9.078;2023-03-04T15:03:41;2.00;99.90
2300;DHT22;1158;48.750;9.078;2023-03-04T15:06:18;1.90;99.90
2300;DHT22;1158;48.750;9.078;2023-03-04T15:08:46;1.90;99.90
2300;DHT22;1158;48.750;9.078;2023-03-04T15:11:21;2.00;99.90
2300;DHT22;1158;48.750;9.078;2023-03-04T15:13:51;2.00;99.90
2300;DHT22;1158;48.750;9.078;2023-03-04T15:16:20;1.80;99.90
2300;DHT22;1158;48.750;9.078;2023-03-04T15:18:56;1.70;99.90
2300;DHT22;1158;48.750;9.078;2023-03-04T15:21:33;2.00;99.90
2300;DHT22;1158;48.750;9.078;2023-03-04T15:24:05;1.90;99.90
2300;DHT22;1158;48.750;9.078;2023-03-04T15:26:36;1.80;99.90
2300;DHT22;1158;48.750;9.078;2023-03-04T15:29:08;1.80;99.90
2300;DHT22;1158;48.750;9.078;2023-03-04T15:31:37;1.80;99.90
2300;DHT22;1158;48.750;9.078;2023-03-04T15:34:11;1.80;99.90
2300;DHT22;1158;48.750;9.078;2023-03-04T15:36:39;1.70;99.90
2300;DHT22;1158;48.750;9.078;2023-03-04T15:39:10;1.70;99.90
2300;DHT22;1158;48.750;9.078;2023-03-04T15:41:38;1.70;99.90
2300;DHT22;1158;48.750;9.078;2023-03-04T15:44:05;1.70;99.90
2300;DHT22;1158;48.750;9.078;2023-03-04T15:46:32;1.70;99.90
2300;DHT22;1158;48.750;9.078;2023-03-04T15:48:59;1.80;99.90
2300;DHT22;1158;48.750;9.078;2023-03-04T15:51:26;1.70;99.90
2300;DHT22;1158;48.750;9.078;2023-03-04T15:53:56;1.70;99.90
2300;DHT22;1158;48.750;9.078;2023-03-04T15:56:26;1.70;99.90
2300;DHT22;1158;48.750;9.078;2023-03-04T15:58:55;1.80;99.90
2300;DHT22;1158;48.750;9.078;2023-03-04T16:01:23;1.80;99.90
2300;DHT22;1158;48.750;9.078;2023-03-04T16:03:52;1.80;99.90
2300;DHT22;1158;48.750;9.078;2023-03-04T16:06:19;1.70;99.90
2300;DHT22;1158;48.750;9.078;2023-03-04T16:08:48;1.80;99.90
2300;DHT22;1158;48.750;9.078;2023-03-04T16:11:22;1.80;99.90
2300;DHT22;1158;48.750;9.078;2023-03-04T16:13:49;1.70;99.90
2300;DHT22;1158;48.750;9.078;2023-03-04T16:16:22;1.70;99.90
2300;DHT22;1158;48.750;9.078;2023-03-04T16:18:54;1.70;99.90
2300;DHT22;1158;48.750;9.078;2023-03-04T16:21:21;1.70;99.90
2300;DHT22;1158;48.750;9.078;2023-03-04T16:23:49;1.60;99.90
2300;DHT22;1158;48.750;9.078;2023-03-04T16:26:22;1.60;99.90
2300;DHT22;1158;48.750;9.078;2023-03-04T16:28:52;1.60;99.90
2300;DHT22;1158;48.750;9.078;2023-03-04T16:31:19;1.60;99.90
2300;DHT22;1158;48.750;9.078;2023-03-04T16:33:47;1.60;99.90
2300;DHT22;1158;48.750;9.078;2023-03-04T16:36:17;1.70;99.90
2300;DHT22;1158;48.750;9.078;2023-03-04T16:38:45;1.70;99.90